Time;durP1;ratioP1;P1;durP2;ratioP2;P2;SDS_P1;SDS_P2;PMS_P1;PMS_P2;Temp;Humidity;BMP_temperature;BMP_pressure;BME280_temperature;BME280_humidity;BME280_pressure;Samples;Min_cycle;Max_cycle;Signal;HPM_P1;HPM_P2
2022/05/21 00:01:45;;;;;;;7.47;6.67;;;18.70;99.90;;;;;;5029275;28;20668;-78
2022/05/21 00:04:12;;;;;;;7.40;6.80;;;18.60;99.90;;;;;;5040177;28;20199;-79
2022/05/21 00:06:40;;;;;;;7.83;7.13;;;18.60;99.90;;;;;;5042105;28;20201;-79
2022/05/21 00:09:09;;;;;;;7.50;6.90;;;18.70;99.90;;;;;;5041386;28;20213;-79
2022/05/21 00:11:36;;;;;;;7.17;6.57;;;18.60;99.90;;;;;;5041873;28;20225;-77
2022/05/21 00:14:03;;;;;;;7.03;6.43;;;18.60;99.90;;;;;;5043019;28;20199;-79
2022/05/21 00:16:31;;;;;;;6.77;6.23;;;18.60;99.90;;;;;;5040981;28;20664;-79
2022/05/21 00:18:58;;;;;;;7.53;6.93;;;18.60;99.90;;;;;;5042918;28;20212;-79
2022/05/21 00:21:25;;;;;;;7.17;6.57;;;18.50;99.90;;;;;;5045026;28;20242;-79
2022/05/21 00:23:52;;;;;;;7.20;6.50;;;18.40;99.90;;;;;;5046145;28;20249;-79
2022/05/21 00:26:21;;;;;;;7.90;7.30;;;18.40;99.90;;;;;;5044867;28;20558;-78
2022/05/21 00:28:50;;;;;;;7.70;7.10;;;18.40;99.90;;;;;;5045417;28;20219;-79
2022/05/21 00:31:18;;;;;;;7.60;6.93;;;18.30;99.90;;;;;;5044876;28;20233;-79
2022/05/21 00:33:46;;;;;;;7.20;6.60;;;18.20;99.90;;;;;;5038772;28;20559;-78
2022/05/21 00:36:14;;;;;;;7.77;7.17;;;18.20;99.90;;;;;;5045735;28;20200;-77
2022/05/21 00:38:41;;;;;;;7.70;7.10;;;18.20;99.90;;;;;;5046023;28;20200;-79
2022/05/21 00:41:11;;;;;;;8.00;7.30;;;18.10;99.90;;;;;;5045541;28;20224;-78
2022/05/21 00:43:45;;;;;;;7.63;6.93;;;18.10;99.90;;;;;;5039693;28;20669;-78
2022/05/21 00:46:14;;;;;;;7.53;6.93;;;18.00;99.90;;;;;;5048317;28;20239;-79
2022/05/21 00:48:42;;;;;;;7.80;7.10;;;17.90;99.90;;;;;;5042252;28;20205;-80
2022/05/21 00:51:13;;;;;;;7.90;7.27;;;17.90;99.90;;;;;;5048912;28;20231;-79
2022/05/21 00:53:42;;;;;;;7.53;6.87;;;17.90;99.90;;;;;;5038246;28;20202;-79
2022/05/21 00:56:11;;;;;;;7.30;6.70;;;17.80;99.90;;;;;;5049614;28;20238;-79
2022/05/21 01:01:29;;;;;;;7.50;6.80;;;17.70;99.90;;;;;;5043761;28;20228;-79
2022/05/21 01:03:56;;;;;;;6.93;6.43;;;17.60;99.90;;;;;;5058345;28;20601;-79
2022/05/21 01:06:23;;;;;;;7.50;6.70;;;17.50;99.90;;;;;;5042218;28;20291;-79
2022/05/21 01:08:50;;;;;;;7.03;6.47;;;17.60;99.90;;;;;;5041856;28;20203;-77
2022/05/21 01:11:19;;;;;;;6.83;6.23;;;17.50;99.90;;;;;;5042612;28;20220;-79
2022/05/21 01:13:48;;;;;;;7.30;6.70;;;17.50;99.90;;;;;;5043490;28;20572;-79
2022/05/21 01:16:16;;;;;;;6.60;6.10;;;17.40;99.90;;;;;;5044550;28;20207;-80
2022/05/21 01:18:45;;;;;;;6.63;6.03;;;17.30;99.90;;;;;;5040627;28;20231;-79
2022/05/21 01:21:12;;;;;;;6.33;5.83;;;17.30;99.90;;;;;;5038362;28;20339;-79
2022/05/21 01:23:40;;;;;;;6.77;6.17;;;17.20;99.90;;;;;;5042561;28;20593;-79
2022/05/21 01:26:12;;;;;;;6.27;5.70;;;17.20;99.90;;;;;;5041633;28;20649;-79
2022/05/21 01:28:40;;;;;;;6.90;6.30;;;17.10;99.90;;;;;;5038747;28;20195;-79
2022/05/21 01:31:07;;;;;;;6.40;5.90;;;17.10;99.90;;;;;;5080621;22;20222;-79
2022/05/21 01:33:37;;;;;;;6.00;5.60;;;17.10;99.90;;;;;;5053437;28;20656;-80
2022/05/21 01:36:06;;;;;;;5.47;5.10;;;17.00;99.90;;;;;;5055264;28;20204;-80
2022/05/21 01:38:34;;;;;;;5.80;5.40;;;17.00;99.90;;;;;;5056189;28;20393;-80
2022/05/21 01:41:02;;;;;;;6.13;5.63;;;17.00;99.90;;;;;;5040924;28;20707;-78
2022/05/21 01:46:15;;;;;;;6.20;5.70;;;16.90;99.90;;;;;;5036314;28;20203;-78
2022/05/21 01:48:43;;;;;;;6.40;5.90;;;16.80;99.90;;;;;;5038263;28;20219;-80
2022/05/21 01:51:10;;;;;;;6.70;6.07;;;16.80;99.90;;;;;;5037074;28;20254;-79
2022/05/21 01:53:39;;;;;;;6.17;5.77;;;16.70;99.90;;;;;;5044830;28;20192;-79
2022/05/21 01:56:09;;;;;;;5.73;5.33;;;16.70;99.90;;;;;;5033319;28;20219;-78
2022/05/21 01:58:36;;;;;;;6.80;6.20;;;16.70;99.90;;;;;;5033969;28;20295;-79
2022/05/21 02:01:04;;;;;;;6.80;6.30;;;16.70;99.90;;;;;;5037125;28;20219;-78
2022/05/21 02:03:31;;;;;;;6.80;6.27;;;16.60;99.90;;;;;;5034738;28;20226;-78
2022/05/21 02:05:59;;;;;;;6.40;5.90;;;16.60;99.90;;;;;;5036274;28;20238;-80
2022/05/21 02:08:26;;;;;;;6.83;6.23;;;16.50;99.90;;;;;;5037056;28;20657;-79
2022/05/21 02:10:53;;;;;;;7.47;6.87;;;16.50;99.90;;;;;;5036523;28;20247;-79
2022/05/21 02:13:23;;;;;;;7.13;6.60;;;16.50;99.90;;;;;;5036985;28;20298;-79
2022/05/21 02:15:50;;;;;;;6.57;6.07;;;16.50;99.90;;;;;;5031133;28;20291;-79
2022/05/21 02:18:18;;;;;;;6.50;6.10;;;16.40;99.90;;;;;;5034093;28;20266;-78
2022/05/21 02:20:48;;;;;;;7.53;6.93;;;16.40;99.90;;;;;;5033618;28;20263;-78
2022/05/21 02:23:15;;;;;;;6.47;5.97;;;16.30;99.90;;;;;;5036217;28;20232;-79
2022/05/21 02:25:42;;;;;;;6.33;5.93;;;16.30;99.90;;;;;;5035683;28;20195;-79
2022/05/21 02:28:10;;;;;;;6.77;6.23;;;16.30;99.90;;;;;;5035396;28;20298;-77
2022/05/21 02:30:38;;;;;;;7.03;6.53;;;16.20;99.90;;;;;;5042738;28;20230;-79
2022/05/21 02:33:05;;;;;;;6.60;6.00;;;16.20;99.90;;;;;;5035935;28;20202;-79
2022/05/21 02:35:32;;;;;;;6.20;5.70;;;16.10;99.90;;;;;;5032129;28;20204;-77
2022/05/21 02:40:43;;;;;;;6.73;6.23;;;16.00;99.90;;;;;;5045715;28;20229;-80
2022/05/21 02:43:10;;;;;;;6.60;5.67;;;15.90;99.90;;;;;;5036127;28;20580;-78
2022/05/21 02:45:39;;;;;;;6.50;6.00;;;15.80;99.90;;;;;;5035381;28;20204;-79
2022/05/21 02:48:06;;;;;;;6.17;5.67;;;15.70;99.90;;;;;;5034783;28;20203;-79
2022/05/21 02:50:35;;;;;;;7.03;6.40;;;15.70;99.90;;;;;;5034730;28;20249;-79
2022/05/21 02:53:02;;;;;;;6.27;5.77;;;15.60;99.90;;;;;;5035749;28;20195;-82
2022/05/21 02:55:30;;;;;;;6.63;6.00;;;15.50;99.90;;;;;;5034962;28;20267;-79
2022/05/21 02:57:58;;;;;;;6.07;5.67;;;15.40;99.90;;;;;;5021785;28;20574;-79
2022/05/21 03:00:28;;;;;;;6.73;6.33;;;15.40;99.90;;;;;;5033394;28;20218;-78
2022/05/21 03:02:57;;;;;;;7.20;6.60;;;15.30;99.90;;;;;;5032469;28;20346;-79
2022/05/21 03:05:25;;;;;;;6.77;6.27;;;15.30;99.90;;;;;;5026313;28;20204;-82
2022/05/21 03:07:53;;;;;;;6.40;5.90;;;15.20;99.90;;;;;;5040323;28;20308;-82
2022/05/21 03:10:22;;;;;;;5.93;5.57;;;15.30;99.90;;;;;;5030380;28;20221;-80
2022/05/21 03:12:55;;;;;;;6.47;5.93;;;15.30;99.90;;;;;;5029813;28;20193;-79
2022/05/21 03:15:24;;;;;;;6.90;6.40;;;15.20;99.90;;;;;;5051416;28;20206;-80
2022/05/21 03:17:51;;;;;;;6.20;5.80;;;15.10;99.90;;;;;;5032615;28;20223;-80
2022/05/21 03:20:21;;;;;;;6.60;6.10;;;15.10;99.90;;;;;;5033764;28;20224;-79
2022/05/21 03:22:48;;;;;;;6.20;5.80;;;15.00;99.90;;;;;;5047897;28;20247;-79
2022/05/21 03:25:16;;;;;;;5.93;5.60;;;15.00;99.90;;;;;;5034247;28;20205;-79
2022/05/21 03:27:44;;;;;;;7.00;6.50;;;15.00;99.90;;;;;;5033637;28;20601;-80
2022/05/21 03:30:13;;;;;;;6.63;6.20;;;14.90;99.90;;;;;;5033520;28;20680;-79
2022/05/21 03:32:40;;;;;;;6.60;6.20;;;14.90;99.90;;;;;;5049484;28;20463;-78
2022/05/21 03:35:09;;;;;;;6.20;5.80;;;14.90;99.90;;;;;;5034256;28;20291;-80
2022/05/21 03:37:37;;;;;;;6.27;5.87;;;14.90;99.90;;;;;;5034330;28;20199;-80
2022/05/21 03:40:08;;;;;;;6.60;6.20;;;14.80;99.90;;;;;;5034164;28;20220;-80
2022/05/21 03:42:35;;;;;;;6.33;5.90;;;14.90;99.90;;;;;;5050331;28;20225;-79
2022/05/21 03:45:02;;;;;;;7.30;6.23;;;15.20;99.90;;;;;;5034275;28;20228;-79
2022/05/21 03:47:29;;;;;;;6.70;6.20;;;15.10;99.90;;;;;;5034941;28;20212;-80
2022/05/21 03:49:56;;;;;;;6.10;5.70;;;15.00;99.90;;;;;;5035157;28;20221;-80
2022/05/21 03:52:23;;;;;;;6.33;5.83;;;14.90;99.90;;;;;;5035399;28;20228;-80
2022/05/21 03:54:51;;;;;;;6.53;5.97;;;14.80;99.90;;;;;;5035369;28;20247;-80
2022/05/21 03:57:18;;;;;;;6.40;5.90;;;14.70;99.90;;;;;;5036815;28;20237;-82
2022/05/21 03:59:46;;;;;;;6.57;6.07;;;14.60;99.90;;;;;;5035556;28;20223;-80
2022/05/21 04:02:13;;;;;;;6.77;6.10;;;14.60;99.90;;;;;;5033472;28;20271;-80
2022/05/21 04:04:40;;;;;;;6.27;5.87;;;14.50;99.90;;;;;;5033761;28;20643;-80
2022/05/21 04:07:07;;;;;;;6.10;5.60;;;14.50;99.90;;;;;;5033913;28;20303;-82
2022/05/21 04:09:35;;;;;;;6.30;5.90;;;14.50;99.90;;;;;;5034328;28;20224;-81
2022/05/21 04:12:04;;;;;;;6.43;5.97;;;14.50;99.90;;;;;;5033306;28;20307;-82
2022/05/21 04:14:31;;;;;;;6.30;5.90;;;14.50;99.90;;;;;;5033441;28;20201;-81
2022/05/21 04:17:00;;;;;;;6.30;5.90;;;14.50;99.90;;;;;;5033650;28;20203;-80
2022/05/21 04:19:28;;;;;;;6.63;6.23;;;14.50;99.90;;;;;;5033172;28;20320;-81
2022/05/21 04:21:56;;;;;;;6.27;5.87;;;14.50;99.90;;;;;;5033446;28;20200;-84
2022/05/21 04:24:23;;;;;;;6.20;5.80;;;14.50;99.90;;;;;;5046205;28;20237;-79
2022/05/21 04:26:51;;;;;;;6.80;6.30;;;14.50;99.90;;;;;;5027268;28;20204;-78
2022/05/21 04:29:19;;;;;;;6.83;6.23;;;14.60;99.90;;;;;;5034473;28;20208;-78
2022/05/21 04:31:47;;;;;;;6.03;5.70;;;14.60;99.90;;;;;;5034289;28;20657;-79
2022/05/21 04:34:14;;;;;;;6.20;5.80;;;14.80;99.90;;;;;;5032751;28;20202;-77
2022/05/21 04:36:41;;;;;;;6.30;5.90;;;14.90;99.90;;;;;;5033529;28;20192;-79
2022/05/21 04:39:10;;;;;;;6.97;6.37;;;15.00;99.90;;;;;;5034599;28;20205;-79
2022/05/21 04:41:37;;;;;;;6.67;6.23;;;15.00;99.90;;;;;;5028628;28;20260;-79
2022/05/21 04:44:07;;;;;;;6.80;6.23;;;15.10;99.90;;;;;;5034381;28;20598;-79
2022/05/21 04:46:36;;;;;;;4.50;4.20;;;15.20;99.90;;;;;;5034272;28;20204;-80
2022/05/21 04:49:05;;;;;;;5.90;5.60;;;15.20;99.90;;;;;;5034250;28;20209;-79
2022/05/21 04:51:33;;;;;;;5.97;5.60;;;15.40;99.90;;;;;;5035499;28;20278;-79
2022/05/21 04:54:00;;;;;;;6.50;6.07;;;15.40;99.90;;;;;;5027555;28;20209;-78
2022/05/21 04:56:27;;;;;;;6.40;6.00;;;15.50;99.90;;;;;;5032595;28;20207;-79
2022/05/21 04:58:55;;;;;;;6.40;5.90;;;15.50;99.90;;;;;;5034267;28;20235;-79
2022/05/21 05:01:22;;;;;;;6.20;5.80;;;15.60;99.90;;;;;;5033567;28;20316;-78
2022/05/21 05:03:50;;;;;;;6.70;6.20;;;15.70;99.90;;;;;;5033728;28;20289;-79
2022/05/21 05:06:17;;;;;;;6.27;5.87;;;15.70;99.90;;;;;;5036267;28;20203;-79
2022/05/21 05:08:44;;;;;;;5.67;5.33;;;15.70;99.90;;;;;;5037757;28;20200;-79
2022/05/21 05:11:11;;;;;;;6.53;6.03;;;15.80;99.90;;;;;;5037336;28;20286;-80
2022/05/21 05:13:38;;;;;;;6.43;5.93;;;15.90;99.90;;;;;;5046123;28;20201;-82
2022/05/21 05:16:05;;;;;;;5.87;5.57;;;16.00;99.90;;;;;;5036252;28;20200;-81
2022/05/21 05:18:32;;;;;;;6.17;5.67;;;16.10;99.90;;;;;;5036252;28;20227;-80
2022/05/21 05:21:01;;;;;;;5.80;5.40;;;16.20;99.90;;;;;;5036032;28;20286;-82
2022/05/21 05:23:29;;;;;;;6.93;6.23;;;16.30;99.90;;;;;;5036540;28;20289;-79
2022/05/21 05:25:59;;;;;;;5.10;4.70;;;16.40;99.90;;;;;;5036751;28;20668;-79
2022/05/21 05:28:26;;;;;;;4.60;4.30;;;16.60;99.90;;;;;;5036912;28;20196;-80
2022/05/21 05:30:54;;;;;;;5.00;4.50;;;16.70;99.90;;;;;;5032951;28;20235;-82
2022/05/21 05:33:22;;;;;;;4.67;4.37;;;16.80;99.90;;;;;;5031755;28;20242;-80
2022/05/21 05:35:52;;;;;;;4.43;4.23;;;17.00;99.90;;;;;;5031336;28;20700;-82
2022/05/21 05:38:22;;;;;;;5.03;4.73;;;17.10;99.90;;;;;;5032664;28;20206;-82
2022/05/21 05:40:51;;;;;;;4.90;4.60;;;17.20;99.90;;;;;;5051852;28;20219;-81
2022/05/21 05:43:20;;;;;;;4.80;4.50;;;17.50;99.90;;;;;;5052435;28;20552;-82
2022/05/21 05:45:49;;;;;;;4.53;4.17;;;18.00;99.90;;;;;;5035690;28;20677;-82
2022/05/21 05:48:16;;;;;;;4.33;4.03;;;18.70;99.90;;;;;;5035346;28;20204;-82
2022/05/21 05:50:43;;;;;;;4.20;3.90;;;19.40;99.90;;;;;;5035156;28;20309;-83
2022/05/21 05:53:10;;;;;;;3.93;3.60;;;20.00;99.90;;;;;;5035727;28;20217;-82
2022/05/21 05:55:41;;;;;;;3.03;2.73;;;20.40;99.90;;;;;;5040524;28;20283;-82
2022/05/21 06:00:49;;;;;;;4.40;4.00;;;20.90;99.90;;;;;;5036530;28;20222;-82
2022/05/21 06:03:16;;;;;;;5.40;5.10;;;20.70;99.90;;;;;;5036079;28;20203;-82
2022/05/21 06:05:43;;;;;;;5.00;4.70;;;20.40;99.90;;;;;;5036537;28;20230;-81
2022/05/21 06:08:11;;;;;;;5.13;4.70;;;20.40;99.90;;;;;;5037924;28;20261;-82
2022/05/21 06:10:43;;;;;;;5.50;5.20;;;20.20;99.90;;;;;;5044705;28;20226;-80
2022/05/21 06:13:14;;;;;;;4.33;3.93;;;20.30;99.90;;;;;;5033009;28;20218;-79
2022/05/21 06:15:42;;;;;;;3.13;2.93;;;20.20;99.90;;;;;;5034992;28;20208;-79
2022/05/21 06:18:12;;;;;;;3.10;2.80;;;20.00;99.90;;;;;;5035929;28;20295;-79
2022/05/21 06:20:39;;;;;;;4.13;3.83;;;19.80;99.90;;;;;;5039012;28;20220;-79
2022/05/21 06:23:06;;;;;;;2.53;2.33;;;19.60;99.90;;;;;;5028818;28;20295;-79
2022/05/21 06:25:34;;;;;;;5.30;4.90;;;19.90;99.90;;;;;;5036034;28;20303;-79
2022/05/21 06:28:04;;;;;;;5.30;4.90;;;20.60;99.90;;;;;;5030733;28;20211;-80
2022/05/21 06:30:34;;;;;;;3.13;2.80;;;21.10;99.90;;;;;;5033943;28;20281;-80
2022/05/21 06:33:12;;;;;;;6.53;6.03;;;21.50;99.90;;;;;;5028786;28;20291;-79
2022/05/21 06:35:39;;;;;;;4.70;4.30;;;22.00;99.90;;;;;;5049009;28;20283;-83
2022/05/21 06:38:06;;;;;;;5.60;5.20;;;22.30;99.90;;;;;;5035089;28;20200;-81
2022/05/21 06:40:33;;;;;;;4.80;4.40;;;22.50;99.90;;;;;;5034247;28;20212;-83
2022/05/21 06:43:00;;;;;;;4.93;4.53;;;22.70;99.90;;;;;;5031306;28;20204;-82
2022/05/21 06:45:29;;;;;;;5.13;4.73;;;23.10;99.90;;;;;;5034473;28;20216;-81
2022/05/21 06:48:01;;;;;;;3.67;3.37;;;23.10;99.90;;;;;;5034309;28;20673;-82
2022/05/21 06:50:28;;;;;;;2.10;1.90;;;23.30;99.90;;;;;;5034269;28;20220;-81
2022/05/21 06:52:55;;;;;;;2.00;1.90;;;23.30;99.90;;;;;;5033861;28;20208;-81
2022/05/21 06:55:22;;;;;;;3.43;3.23;;;23.40;99.90;;;;;;5033979;28;20207;-81
2022/05/21 06:57:50;;;;;;;4.07;3.77;;;23.50;99.90;;;;;;5034183;28;20291;-80
2022/05/21 07:00:18;;;;;;;3.40;3.20;;;23.60;99.90;;;;;;5033359;28;20215;-80
2022/05/21 07:02:48;;;;;;;2.00;1.90;;;23.80;99.90;;;;;;5033950;28;20564;-82
2022/05/21 07:08:01;;;;;;;2.70;2.50;;;23.80;99.90;;;;;;5030922;28;20295;-80
2022/05/21 07:10:29;;;;;;;3.33;3.03;;;24.00;99.90;;;;;;5032181;28;20250;-82
2022/05/21 07:12:56;;;;;;;2.77;2.47;;;24.10;99.90;;;;;;5033155;28;20571;-82
2022/05/21 07:15:23;;;;;;;2.63;2.30;;;24.20;99.90;;;;;;5034169;28;20286;-81
2022/05/21 07:17:59;;;;;;;1.97;1.80;;;24.10;99.90;;;;;;5034693;28;20291;-82
2022/05/21 07:20:26;;;;;;;3.40;1.80;;;24.10;99.90;;;;;;5034049;28;20233;-80
2022/05/21 07:22:53;;;;;;;1.90;1.80;;;24.20;99.90;;;;;;5034035;28;20564;-81
2022/05/21 07:25:23;;;;;;;1.70;1.60;;;24.80;99.90;;;;;;5033759;28;20222;-83
2022/05/21 07:27:50;;;;;;;1.90;1.70;;;25.10;99.90;;;;;;5046321;28;20277;-82
2022/05/21 07:30:18;;;;;;;1.67;1.57;;;25.10;99.90;;;;;;5061328;23;20321;-80
2022/05/21 07:32:45;;;;;;;2.23;2.00;;;25.30;99.90;;;;;;5061096;28;20198;-80
2022/05/21 07:35:16;;;;;;;2.23;1.83;;;25.00;99.90;;;;;;5055689;28;20210;-80
2022/05/21 07:37:43;;;;;;;2.80;1.73;;;24.60;99.50;;;;;;5067054;28;20290;-80
2022/05/21 07:40:11;;;;;;;1.80;1.40;;;24.60;99.70;;;;;;5055919;28;20223;-80
2022/05/21 07:42:38;;;;;;;2.37;2.17;;;24.30;99.90;;;;;;5064065;28;20214;-79
2022/05/21 07:45:07;;;;;;;2.57;2.37;;;24.90;99.90;;;;;;5057093;28;20219;-80
2022/05/21 07:47:34;;;;;;;2.43;2.23;;;24.60;99.80;;;;;;5062054;28;20564;-82
2022/05/21 07:50:01;;;;;;;4.73;4.43;;;23.60;99.90;;;;;;5062492;28;20696;-80
2022/05/21 07:52:30;;;;;;;4.53;1.97;;;22.80;99.90;;;;;;5061135;28;20233;-79
2022/05/21 07:54:58;;;;;;;1.67;1.57;;;23.00;99.90;;;;;;5061951;28;20187;-79
2022/05/21 07:57:25;;;;;;;3.20;1.77;;;23.50;99.90;;;;;;5063627;28;20199;-80
2022/05/21 07:59:52;;;;;;;2.03;1.87;;;24.10;99.90;;;;;;5055950;28;20223;-79
2022/05/21 08:02:20;;;;;;;1.67;1.57;;;24.00;99.90;;;;;;5061263;28;20260;-80
2022/05/21 08:04:48;;;;;;;2.20;1.40;;;24.10;99.90;;;;;;5058452;28;20222;-81
2022/05/21 08:07:16;;;;;;;1.67;1.40;;;24.30;99.90;;;;;;5061595;28;20638;-79
2022/05/21 08:09:44;;;;;;;3.73;3.53;;;23.90;99.90;;;;;;5056973;28;20219;-79
2022/05/21 08:12:14;;;;;;;2.70;2.60;;;23.10;99.90;;;;;;5062452;28;20195;-80
2022/05/21 08:14:41;;;;;;;2.23;2.13;;;22.90;99.90;;;;;;5061649;28;20193;-80
2022/05/21 08:17:11;;;;;;;2.50;1.70;;;23.40;99.90;;;;;;5061779;28;20663;-80
2022/05/21 08:19:40;;;;;;;2.00;1.90;;;23.90;99.90;;;;;;5059079;28;20194;-80
2022/05/21 08:27:37;;;;;;;3.83;3.60;;;24.30;99.90;;;;;;5042503;28;20222;-80
2022/05/21 08:30:06;;;;;;;2.70;2.50;;;24.60;99.20;;;;;;5046697;28;20600;-79
2022/05/21 08:32:33;;;;;;;3.60;3.07;;;25.10;99.70;;;;;;5048913;28;20203;-79
2022/05/21 08:35:01;;;;;;;3.40;2.80;;;25.00;98.40;;;;;;5050029;28;20206;-81
2022/05/21 08:37:28;;;;;;;3.37;3.10;;;25.10;99.20;;;;;;5057470;28;20195;-78
2022/05/21 08:39:56;;;;;;;3.57;3.37;;;25.40;99.00;;;;;;5057776;28;20198;-80
2022/05/21 08:42:33;;;;;;;3.77;3.57;;;25.60;97.90;;;;;;5063568;28;20679;-80
2022/05/21 08:45:15;;;;;;;2.30;1.87;;;25.70;97.60;;;;;;5060599;28;20214;-78
2022/05/21 08:47:42;;;;;;;2.60;1.50;;;25.70;95.90;;;;;;5052327;28;20288;-81
2022/05/21 08:50:13;;;;;;;4.00;3.73;;;25.70;96.00;;;;;;5064575;28;20219;-81
2022/05/21 08:52:44;;;;;;;3.07;2.87;;;25.90;97.80;;;;;;5069712;28;20195;-82
2022/05/21 08:55:17;;;;;;;1.50;1.40;;;26.20;98.20;;;;;;5064333;28;20219;-80
2022/05/21 08:57:47;;;;;;;2.53;1.50;;;26.30;96.00;;;;;;5059742;28;20198;-82
2022/05/21 09:00:19;;;;;;;1.87;1.63;;;26.00;95.00;;;;;;5058194;28;20657;-81
2022/05/21 09:02:46;;;;;;;1.37;1.33;;;26.10;95.50;;;;;;5066823;28;20323;-77
2022/05/21 09:05:16;;;;;;;1.30;1.30;;;26.30;95.80;;;;;;5061087;28;20219;-82
2022/05/21 09:08:03;;;;;;;2.10;1.57;;;26.50;96.60;;;;;;5062236;28;20242;-82
2022/05/21 09:10:46;;;;;;;2.40;2.30;;;27.10;94.90;;;;;;5052710;28;20242;-82
2022/05/21 09:13:19;;;;;;;4.23;3.80;;;27.00;94.40;;;;;;5061222;28;20287;-78
2022/05/21 09:18:34;;;;;;;4.30;4.03;;;26.90;93.30;;;;;;5057450;28;20578;-80
2022/05/21 09:21:06;;;;;;;3.80;3.60;;;26.80;94.20;;;;;;5058136;28;20227;-80
2022/05/21 09:23:52;;;;;;;4.20;4.00;;;26.90;94.70;;;;;;5060481;28;20667;-79
2022/05/21 09:26:22;;;;;;;4.40;4.10;;;26.80;93.90;;;;;;5054231;28;20707;-80
2022/05/21 09:28:49;;;;;;;4.20;3.90;;;26.90;94.30;;;;;;5064430;28;20282;-80
2022/05/21 09:31:28;;;;;;;4.10;3.90;;;26.90;92.30;;;;;;5061460;28;20635;-79
2022/05/21 09:33:56;;;;;;;3.83;3.63;;;27.30;93.00;;;;;;5064941;28;20683;-80
2022/05/21 09:36:33;;;;;;;4.20;3.90;;;27.40;91.70;;;;;;5062647;28;20226;-80
2022/05/21 09:39:00;;;;;;;3.70;3.50;;;27.70;92.90;;;;;;5061477;28;20778;-79
2022/05/21 09:41:32;;;;;;;2.43;2.33;;;27.80;93.20;;;;;;5061723;28;20224;-80
2022/05/21 09:47:07;;;;;;;4.10;3.80;;;27.40;90.50;;;;;;5058656;28;20215;-80
2022/05/21 09:49:34;;;;;;;4.20;4.00;;;27.50;91.20;;;;;;5064085;28;20201;-79
2022/05/21 09:52:04;;;;;;;4.37;4.07;;;27.40;90.90;;;;;;5055367;28;20735;-81
2022/05/21 09:54:36;;;;;;;4.20;3.70;;;27.60;90.70;;;;;;5062959;28;20216;-81
2022/05/21 09:57:05;;;;;;;4.10;3.80;;;27.60;90.70;;;;;;5056333;28;20199;-80
2022/05/21 09:59:33;;;;;;;4.10;3.90;;;27.70;90.10;;;;;;5067556;28;20207;-79
2022/05/21 10:02:02;;;;;;;4.10;3.90;;;27.60;90.50;;;;;;5067571;28;20256;-79
2022/05/21 10:04:38;;;;;;;4.07;3.80;;;27.70;88.60;;;;;;5062122;28;20227;-81
2022/05/21 10:10:58;;;;;;;4.40;4.00;;;27.60;88.10;;;;;;5058428;28;20202;-78
2022/05/21 10:12:53;;;;;;;4.93;3.97;;;27.00;89.10;;;;;;5056496;28;20199;-78
2022/05/21 10:15:25;;;;;;;4.20;3.90;;;27.10;90.40;;;;;;5063544;28;20194;-80
2022/05/21 10:17:59;;;;;;;3.80;3.47;;;27.10;88.70;;;;;;5059794;28;20289;-80
2022/05/21 10:20:34;;;;;;;3.40;3.20;;;27.00;90.90;;;;;;5062431;28;20222;-80
2022/05/21 10:23:08;;;;;;;2.10;2.00;;;26.80;89.20;;;;;;5050720;28;20202;-80
2022/05/21 10:25:45;;;;;;;2.20;2.10;;;26.60;88.60;;;;;;5065531;28;20256;-80
2022/05/21 10:28:28;;;;;;;2.60;2.40;;;26.50;90.90;;;;;;5064790;28;20216;-79
2022/05/21 10:31:14;;;;;;;4.10;3.80;;;26.70;90.80;;;;;;5057071;28;20762;-80
2022/05/21 10:34:03;;;;;;;4.00;3.80;;;26.70;91.30;;;;;;5060150;28;20573;-80
2022/05/21 10:36:46;;;;;;;3.90;3.70;;;26.70;91.10;;;;;;5062414;28;20290;-80
2022/05/21 10:39:38;;;;;;;2.90;2.80;;;26.60;91.00;;;;;;5057451;28;20203;-80
2022/05/21 10:42:18;;;;;;;3.50;3.20;;;26.70;90.80;;;;;;5054041;28;20221;-80
2022/05/21 10:45:02;;;;;;;3.00;2.80;;;26.60;91.00;;;;;;5062437;28;20210;-80
2022/05/21 10:47:59;;;;;;;3.70;3.40;;;26.20;91.10;;;;;;5059841;28;20257;-80
2022/05/21 10:50:31;;;;;;;4.30;4.00;;;26.20;90.00;;;;;;5062154;28;20388;-80
2022/05/21 10:53:13;;;;;;;4.63;4.30;;;26.10;90.90;;;;;;5062559;28;20207;-80
2022/05/21 10:55:48;;;;;;;3.53;3.40;;;26.20;90.90;;;;;;5050711;28;20220;-79
2022/05/21 10:58:35;;;;;;;1.20;1.20;;;26.30;91.00;;;;;;5058512;28;20205;-80
2022/05/21 11:01:13;;;;;;;2.90;2.80;;;26.30;91.10;;;;;;5058215;28;20687;-79
2022/05/21 11:04:04;;;;;;;2.97;2.80;;;26.10;90.90;;;;;;5059501;28;20743;-80
2022/05/21 11:07:04;;;;;;;2.40;2.30;;;26.00;90.90;;;;;;5049935;28;20215;-79
2022/05/21 11:09:36;;;;;;;3.00;2.90;;;26.10;91.00;;;;;;5060056;28;20257;-80
2022/05/21 11:12:09;;;;;;;3.03;2.93;;;26.10;91.10;;;;;;5063974;28;20625;-80
2022/05/21 11:14:44;;;;;;;3.43;3.23;;;26.10;90.50;;;;;;5064713;28;20198;-80
2022/05/21 11:17:23;;;;;;;1.10;1.00;;;25.90;90.90;;;;;;5063059;28;20209;-79
2022/05/21 11:19:56;;;;;;;2.80;2.70;;;25.80;91.80;;;;;;5053687;28;20202;-80
2022/05/21 11:22:27;;;;;;;6.37;5.97;;;25.70;90.70;;;;;;5056585;28;20416;-80
2022/05/21 11:25:04;;;;;;;5.00;4.70;;;25.50;90.10;;;;;;5061933;28;20200;-79
2022/05/21 11:27:38;;;;;;;5.17;4.70;;;25.20;91.50;;;;;;5059076;28;20206;-80
2022/05/21 11:30:09;;;;;;;3.17;2.90;;;25.40;91.40;;;;;;5062788;28;20222;-79
2022/05/21 11:38:20;;;;;;;2.10;1.43;;;25.40;91.90;;;;;;5061739;28;20198;-78
2022/05/21 11:41:24;;;;;;;1.63;1.57;;;25.30;91.50;;;;;;5062922;28;20214;-77
2022/05/21 11:46:57;;;;;;;1.40;1.30;;;25.20;90.50;;;;;;5055177;28;20280;-79
2022/05/21 11:49:41;;;;;;;1.27;1.20;;;25.30;91.50;;;;;;5060628;28;20213;-80
2022/05/21 11:52:45;;;;;;;1.20;1.20;;;25.20;91.20;;;;;;5057797;28;20205;-79
2022/05/21 11:55:23;;;;;;;1.07;1.07;;;25.30;91.10;;;;;;5056432;28;20223;-80
2022/05/21 11:57:52;;;;;;;1.10;1.10;;;25.30;90.90;;;;;;5058038;28;20219;-78
2022/05/21 12:00:45;;;;;;;1.10;1.10;;;25.30;90.60;;;;;;5055090;28;20710;-79
2022/05/21 12:03:16;;;;;;;1.20;1.20;;;25.50;91.30;;;;;;5059880;28;20209;-79
2022/05/21 12:06:09;;;;;;;1.17;1.17;;;25.60;90.80;;;;;;5062042;28;20217;-80
2022/05/21 12:08:46;;;;;;;1.10;1.10;;;25.60;90.60;;;;;;5046095;28;20552;-80
2022/05/21 12:11:45;;;;;;;1.40;1.30;;;25.70;91.30;;;;;;5056539;28;20214;-78
2022/05/21 12:14:20;;;;;;;1.53;1.27;;;25.60;89.30;;;;;;5055971;28;20195;-80
2022/05/21 12:16:54;;;;;;;1.00;1.00;;;25.60;90.40;;;;;;5060034;28;20738;-81
2022/05/21 12:20:08;;;;;;;1.20;1.17;;;25.50;89.70;;;;;;5059204;28;20683;-79
2022/05/21 12:22:42;;;;;;;1.17;1.17;;;25.70;88.60;;;;;;5061949;28;20868;-78
2022/05/21 12:25:15;;;;;;;1.40;1.30;;;25.80;89.20;;;;;;5063621;28;20206;-78
2022/05/21 12:27:56;;;;;;;1.43;1.40;;;25.90;89.20;;;;;;5060335;28;20199;-79
2022/05/21 12:30:29;;;;;;;1.03;1.03;;;25.90;87.50;;;;;;5059947;28;20230;-78
2022/05/21 12:32:57;;;;;;;1.30;1.20;;;25.80;86.40;;;;;;5062636;28;20667;-79
2022/05/21 12:35:44;;;;;;;3.77;1.20;;;25.80;86.80;;;;;;5059997;28;20209;-79
2022/05/21 12:38:20;;;;;;;1.30;1.20;;;25.80;86.80;;;;;;5061266;28;20206;-79
2022/05/21 12:40:56;;;;;;;1.20;1.10;;;25.80;87.30;;;;;;5056773;28;20220;-79
2022/05/21 12:43:24;;;;;;;1.10;1.10;;;25.80;85.40;;;;;;5055202;28;20213;-79
2022/05/21 12:45:53;;;;;;;1.00;1.00;;;25.70;86.30;;;;;;5061685;28;20300;-79
2022/05/21 12:48:23;;;;;;;1.27;1.10;;;25.70;83.80;;;;;;5060752;28;20648;-79
2022/05/21 12:50:52;;;;;;;1.07;1.00;;;25.60;85.60;;;;;;5060696;28;20563;-80
2022/05/21 12:53:24;;;;;;;1.73;1.10;;;25.70;85.50;;;;;;5060708;28;20209;-79
2022/05/21 12:56:00;;;;;;;1.00;1.00;;;25.70;85.00;;;;;;5061538;28;20619;-78
2022/05/21 12:58:29;;;;;;;1.47;1.20;;;25.70;85.70;;;;;;5059382;28;20191;-78
2022/05/21 13:00:58;;;;;;;1.30;1.20;;;25.80;84.20;;;;;;5061534;28;20698;-78
2022/05/21 13:03:30;;;;;;;1.20;1.10;;;25.70;85.40;;;;;;5061419;28;20207;-78
2022/05/21 13:05:59;;;;;;;1.10;1.10;;;25.80;84.70;;;;;;5061427;28;20701;-78
2022/05/21 13:08:28;;;;;;;1.23;1.20;;;25.90;84.80;;;;;;5058560;28;20199;-80
2022/05/21 13:11:02;;;;;;;1.10;1.10;;;25.90;85.60;;;;;;5056459;28;20223;-79
2022/05/21 13:13:35;;;;;;;1.07;1.07;;;25.90;85.00;;;;;;5059405;28;20619;-79
2022/05/21 13:16:04;;;;;;;1.20;1.20;;;26.00;82.90;;;;;;5058089;28;20333;-78
2022/05/21 13:18:46;;;;;;;1.30;1.20;;;26.00;84.50;;;;;;5053999;28;20203;-80
2022/05/21 13:21:25;;;;;;;1.60;1.07;;;26.00;86.50;;;;;;5058989;28;20288;-79
2022/05/21 13:24:14;;;;;;;1.40;1.30;;;25.80;88.10;;;;;;5057722;28;20210;-78
2022/05/21 13:26:41;;;;;;;1.77;1.20;;;25.70;82.60;;;;;;5057051;28;20297;-79
2022/05/21 13:29:15;;;;;;;1.33;1.27;;;25.40;85.60;;;;;;5063241;28;20290;-79
2022/05/21 13:31:43;;;;;;;4.20;3.90;;;25.20;85.50;;;;;;5052070;28;20687;-79
2022/05/21 13:34:16;;;;;;;3.07;2.87;;;25.10;89.30;;;;;;5063285;28;20668;-79
2022/05/21 13:36:48;;;;;;;1.23;1.20;;;25.10;89.00;;;;;;5064173;28;20196;-78
2022/05/21 13:39:31;;;;;;;1.10;1.10;;;25.10;87.40;;;;;;5061830;28;20302;-80
2022/05/21 13:42:02;;;;;;;2.37;2.27;;;25.00;86.90;;;;;;5057112;28;20238;-79
2022/05/21 13:44:35;;;;;;;2.60;2.50;;;24.80;88.60;;;;;;5056731;28;20246;-78